createdAt,value
2019-03-18T00:01:41.907Z,3.10
2019-03-18T00:04:10.906Z,3.65
2019-03-18T00:06:39.683Z,3.83
2019-03-18T00:09:08.445Z,3.70
2019-03-18T00:11:37.444Z,3.55
2019-03-18T00:14:06.273Z,4.05
2019-03-18T00:16:35.436Z,3.77
2019-03-18T00:19:04.266Z,3.60
2019-03-18T00:21:33.038Z,4.40
2019-03-18T00:24:01.855Z,5.03
2019-03-18T00:26:30.875Z,4.77
2019-03-18T00:28:59.634Z,4.60
2019-03-18T00:31:28.697Z,5.20
2019-03-18T00:33:57.797Z,5.87
2019-03-18T00:36:26.564Z,5.42
2019-03-18T00:38:55.314Z,6.08
2019-03-18T00:41:24.058Z,5.83
2019-03-18T00:43:53.035Z,6.05
2019-03-18T00:46:21.909Z,6.17
2019-03-18T00:48:50.668Z,6.80
2019-03-18T00:51:19.689Z,7.20
2019-03-18T00:53:48.439Z,7.20
2019-03-18T00:56:17.171Z,6.58
2019-03-18T00:58:46.026Z,7.12
2019-03-18T01:01:14.799Z,7.33
2019-03-18T01:03:43.656Z,7.47
2019-03-18T01:06:13.196Z,7.30
2019-03-18T01:08:42.533Z,7.00
2019-03-18T01:11:11.414Z,7.25
2019-03-18T01:13:40.433Z,7.25
2019-03-18T01:16:09.503Z,7.25
2019-03-18T01:18:38.559Z,7.22
2019-03-18T01:21:07.397Z,7.50
2019-03-18T01:23:36.797Z,8.10
2019-03-18T01:26:05.534Z,8.00
2019-03-18T01:28:34.294Z,7.80
2019-03-18T01:31:03.163Z,7.80
2019-03-18T01:33:31.954Z,6.75
2019-03-18T01:36:00.976Z,6.40
2019-03-18T01:38:29.722Z,6.72
2019-03-18T01:40:58.448Z,6.17
2019-03-18T01:43:27.235Z,6.75
2019-03-18T01:45:56.348Z,6.67
2019-03-18T01:48:25.092Z,6.67
2019-03-18T01:50:53.832Z,6.80
2019-03-18T01:53:22.629Z,6.95
2019-03-18T01:55:51.421Z,7.00
2019-03-18T01:58:20.756Z,7.13
2019-03-18T02:00:49.503Z,7.08
2019-03-18T02:03:18.591Z,6.78
2019-03-18T02:05:47.591Z,6.35
2019-03-18T02:08:16.336Z,6.60
2019-03-18T02:10:45.236Z,6.83
2019-03-18T02:13:14.078Z,6.80
2019-03-18T02:15:52.718Z,6.90
2019-03-18T02:18:13.805Z,7.03
2019-03-18T02:20:42.956Z,6.83
2019-03-18T02:23:12.048Z,6.90
2019-03-18T02:25:40.825Z,7.20
2019-03-18T02:28:09.882Z,8.08
2019-03-18T02:30:39.089Z,7.62
2019-03-18T02:33:08.802Z,8.70
2019-03-18T02:35:37.584Z,8.25
2019-03-18T02:38:06.434Z,9.03
2019-03-18T02:40:35.564Z,9.10
2019-03-18T02:43:04.347Z,9.20
2019-03-18T02:45:33.237Z,9.35
2019-03-18T02:48:02.078Z,9.35
2019-03-18T02:50:30.865Z,9.18
2019-03-18T02:52:59.814Z,9.95
2019-03-18T02:55:28.980Z,9.90
2019-03-18T02:57:58.405Z,9.75
2019-03-18T03:00:27.261Z,10.82
2019-03-18T03:02:56.043Z,10.20
2019-03-18T03:05:25.010Z,10.50
2019-03-18T03:07:54.009Z,10.95
2019-03-18T03:10:22.841Z,11.28
2019-03-18T03:12:51.608Z,10.35
2019-03-18T03:15:20.387Z,11.73
2019-03-18T03:17:49.557Z,11.65
2019-03-18T03:20:18.733Z,12.18
2019-03-18T03:22:47.862Z,12.20
2019-03-18T03:25:16.678Z,12.18
2019-03-18T03:27:45.880Z,12.07
2019-03-18T03:30:14.975Z,13.08
2019-03-18T03:32:44.381Z,12.67
2019-03-18T03:35:13.528Z,11.88
2019-03-18T03:37:42.706Z,12.33
2019-03-18T03:40:11.924Z,12.17
2019-03-18T03:42:41.139Z,11.93
2019-03-18T03:45:10.790Z,12.55
2019-03-18T03:47:39.729Z,11.78
2019-03-18T03:50:08.863Z,12.25
2019-03-18T03:52:38.049Z,12.20
2019-03-18T03:55:07.378Z,12.43
2019-03-18T03:57:36.584Z,11.83
2019-03-18T04:00:06.413Z,12.53
2019-03-18T04:02:36.786Z,12.67
2019-03-18T04:05:05.865Z,12.23
2019-03-18T04:07:34.971Z,12.45
2019-03-18T04:10:04.342Z,12.43
2019-03-18T04:12:33.178Z,12.20
2019-03-18T04:15:02.047Z,11.83
2019-03-18T04:17:31.182Z,12.55
2019-03-18T04:19:59.973Z,12.40
2019-03-18T04:22:29.075Z,11.65
2019-03-18T04:24:58.090Z,11.50
2019-03-18T04:27:27.177Z,11.35
2019-03-18T04:29:55.969Z,10.50
2019-03-18T04:32:25.023Z,10.20
2019-03-18T04:34:54.184Z,10.23
2019-03-18T04:37:23.230Z,10.50
2019-03-18T04:39:52.419Z,10.53
2019-03-18T04:42:21.262Z,10.32
2019-03-18T04:44:50.053Z,10.18
2019-03-18T04:47:18.897Z,10.25
2019-03-18T04:49:47.675Z,9.98
2019-03-18T04:52:16.528Z,10.48
2019-03-18T04:54:45.376Z,9.70
2019-03-18T04:57:14.154Z,9.60
2019-03-18T04:59:43.238Z,10.13
2019-03-18T05:02:12.336Z,10.00
2019-03-18T05:04:41.090Z,9.85
2019-03-18T05:07:09.889Z,10.32
2019-03-18T05:09:38.709Z,10.03
2019-03-18T05:12:07.561Z,10.08
2019-03-18T05:14:36.703Z,10.03
2019-03-18T05:17:05.520Z,9.98
2019-03-18T05:19:34.631Z,10.30
2019-03-18T05:22:03.491Z,10.38
2019-03-18T05:24:32.280Z,10.28
2019-03-18T05:27:01.479Z,10.38
2019-03-18T05:29:30.273Z,11.00
2019-03-18T05:31:59.064Z,10.88
2019-03-18T05:34:27.882Z,10.00
2019-03-18T05:36:56.995Z,11.05
2019-03-18T05:39:26.418Z,10.98
2019-03-18T05:41:55.265Z,11.75
2019-03-18T05:44:24.352Z,11.83
2019-03-18T05:46:53.223Z,11.80
2019-03-18T05:49:21.995Z,12.20
2019-03-18T05:51:51.012Z,12.50
2019-03-18T05:54:19.805Z,12.75
2019-03-18T05:56:48.924Z,12.85
2019-03-18T05:59:18.121Z,12.53
2019-03-18T06:01:46.986Z,12.55
2019-03-18T06:04:16.236Z,12.20
2019-03-18T06:06:45.314Z,12.00
2019-03-18T06:09:14.798Z,12.47
2019-03-18T06:11:43.912Z,11.97
2019-03-18T06:14:12.728Z,11.93
2019-03-18T06:16:41.693Z,11.63
2019-03-18T06:19:10.794Z,12.10
2019-03-18T06:21:39.799Z,11.45
2019-03-18T06:24:08.866Z,11.27
2019-03-18T06:26:38.056Z,10.95
2019-03-18T06:29:06.937Z,11.30
2019-03-18T06:31:35.711Z,10.65
2019-03-18T06:34:04.737Z,10.68
2019-03-18T06:36:33.835Z,9.65
2019-03-18T06:39:02.627Z,9.83
2019-03-18T06:41:31.398Z,9.73
2019-03-18T06:44:00.204Z,9.70
2019-03-18T06:46:29.125Z,9.03
2019-03-18T06:48:58.090Z,9.00
2019-03-18T06:51:26.901Z,9.30
2019-03-18T06:53:55.694Z,8.63
2019-03-18T06:56:24.552Z,8.78
2019-03-18T06:58:53.369Z,8.50
2019-03-18T07:01:22.293Z,8.48
2019-03-18T07:03:51.337Z,8.80
2019-03-18T07:06:20.088Z,8.30
2019-03-18T07:08:48.861Z,8.70
2019-03-18T07:11:17.713Z,8.40
2019-03-18T07:13:46.744Z,8.40
2019-03-18T07:16:15.507Z,8.25
2019-03-18T07:18:44.303Z,8.03
2019-03-18T07:21:14.720Z,7.28
2019-03-18T07:23:43.781Z,7.22
2019-03-18T07:26:12.564Z,6.28
2019-03-18T07:28:41.629Z,7.10
2019-03-18T07:31:10.548Z,6.58
2019-03-18T07:33:40.218Z,6.37
2019-03-18T07:36:09.760Z,6.12
2019-03-18T07:38:38.571Z,6.40
2019-03-18T07:41:07.534Z,5.80
2019-03-18T07:43:36.386Z,6.00
2019-03-18T07:46:05.260Z,6.30
2019-03-18T07:48:34.406Z,5.70
2019-03-18T07:51:03.263Z,6.13
2019-03-18T07:53:32.373Z,5.25
2019-03-18T07:56:01.287Z,5.12
2019-03-18T07:58:30.331Z,4.87
2019-03-18T08:00:59.276Z,5.25
2019-03-18T08:03:28.201Z,4.80
2019-03-18T08:05:57.557Z,4.40
2019-03-18T08:08:26.667Z,4.55
2019-03-18T08:10:55.440Z,4.22
2019-03-18T08:13:24.216Z,4.33
2019-03-18T08:15:52.995Z,4.00
2019-03-18T08:18:21.812Z,4.08
2019-03-18T08:20:51.202Z,3.83
2019-03-18T08:23:20.051Z,3.85
2019-03-18T08:25:48.824Z,4.00
2019-03-18T08:28:17.873Z,3.92
2019-03-18T08:30:46.659Z,3.98
2019-03-18T08:33:15.424Z,4.20
2019-03-18T08:35:44.279Z,4.10
2019-03-18T08:38:13.335Z,3.87
2019-03-18T08:40:42.126Z,3.90
2019-03-18T08:43:11.233Z,3.62
2019-03-18T08:45:40.312Z,4.15
2019-03-18T08:48:09.100Z,4.53
2019-03-18T08:50:37.868Z,4.20
2019-03-18T08:53:06.656Z,4.12
2019-03-18T08:55:35.864Z,4.40
2019-03-18T08:58:04.717Z,4.28
2019-03-18T09:00:33.669Z,4.20
2019-03-18T09:03:02.971Z,4.12
2019-03-18T09:05:32.375Z,4.33
2019-03-18T09:08:01.149Z,4.20
2019-03-18T09:10:30.225Z,3.58
2019-03-18T09:12:59.408Z,4.00
2019-03-18T09:15:28.248Z,3.80
2019-03-18T09:17:57.485Z,4.12
2019-03-18T09:20:26.256Z,4.30
2019-03-18T09:22:55.102Z,3.87
2019-03-18T09:25:24.180Z,4.08
2019-03-18T09:27:53.112Z,3.65
2019-03-18T09:30:22.373Z,3.55
2019-03-18T09:32:51.249Z,3.40
2019-03-18T09:35:20.358Z,3.50
2019-03-18T09:37:49.573Z,3.50
2019-03-18T09:40:18.508Z,3.50
2019-03-18T09:42:47.747Z,3.52
2019-03-18T09:45:16.657Z,3.37
2019-03-18T09:47:45.498Z,3.60
2019-03-18T09:50:14.732Z,3.27
2019-03-18T09:52:43.829Z,3.60
2019-03-18T09:55:13.052Z,3.52
2019-03-18T09:57:42.028Z,3.45
2019-03-18T10:00:12.342Z,3.40
2019-03-18T10:02:41.366Z,3.30
2019-03-18T10:05:10.637Z,3.40
2019-03-18T10:07:39.587Z,3.30
2019-03-18T10:10:09.525Z,3.45
2019-03-18T10:12:38.370Z,3.40
2019-03-18T10:15:09.249Z,3.27
2019-03-18T10:17:38.019Z,3.40
2019-03-18T10:20:07.578Z,3.33
2019-03-18T10:22:36.742Z,3.50
2019-03-18T10:25:05.806Z,3.87
2019-03-18T10:27:37.532Z,3.70
2019-03-18T10:30:05.975Z,3.40
2019-03-18T10:32:35.060Z,3.55
2019-03-18T10:35:04.112Z,3.65
2019-03-18T10:37:33.162Z,3.50
2019-03-18T10:40:02.349Z,2.67
2019-03-18T10:42:31.125Z,2.40
2019-03-18T10:45:00.360Z,2.20
2019-03-18T10:47:29.567Z,2.10
2019-03-18T10:49:58.345Z,2.30
2019-03-18T10:52:27.137Z,2.40
2019-03-18T10:54:55.965Z,2.80
2019-03-18T10:57:25.413Z,2.90
2019-03-18T10:59:54.192Z,2.52
2019-03-18T11:02:23.043Z,2.87
2019-03-18T11:04:51.958Z,2.70
2019-03-18T11:07:20.739Z,3.17
2019-03-18T11:09:49.518Z,3.62
2019-03-18T11:12:18.972Z,2.98
2019-03-18T11:14:47.881Z,2.95
2019-03-18T11:17:16.733Z,3.10
2019-03-18T11:19:57.520Z,3.20
2019-03-18T11:22:16.308Z,3.60
2019-03-18T11:24:45.164Z,3.30
2019-03-18T11:27:14.283Z,4.03
2019-03-18T11:29:43.088Z,3.80
2019-03-18T11:32:11.870Z,3.77
2019-03-18T11:34:40.677Z,3.87
2019-03-18T11:37:09.611Z,3.80
2019-03-18T11:39:38.452Z,3.30
2019-03-18T11:42:07.302Z,3.40
2019-03-18T11:44:36.121Z,3.12
2019-03-18T11:47:05.053Z,3.70
2019-03-18T11:49:39.566Z,4.30
2019-03-18T11:52:04.887Z,4.37
2019-03-18T11:54:33.837Z,4.08
2019-03-18T11:57:02.943Z,2.80
2019-03-18T11:59:31.727Z,2.65
2019-03-18T12:02:00.760Z,2.22
2019-03-18T12:04:32.624Z,2.40
2019-03-18T12:07:00.471Z,2.47
2019-03-18T12:09:29.264Z,2.20
2019-03-18T12:11:58.081Z,2.50
2019-03-18T12:14:27.257Z,2.50
2019-03-18T12:16:56.338Z,2.87
2019-03-18T12:19:25.413Z,2.70
2019-03-18T12:21:54.275Z,3.10
2019-03-18T12:24:23.517Z,3.12
2019-03-18T12:26:52.647Z,3.05
2019-03-18T12:29:21.720Z,2.80
2019-03-18T12:31:50.601Z,2.77
2019-03-18T12:34:19.451Z,3.20
2019-03-18T12:36:48.222Z,3.30
2019-03-18T12:39:17.265Z,3.00
2019-03-18T12:41:46.120Z,3.00
2019-03-18T12:44:15.001Z,3.47
2019-03-18T12:46:45.282Z,3.40
2019-03-18T12:49:14.107Z,3.35
2019-03-18T12:51:43.083Z,2.72
2019-03-18T12:54:12.105Z,3.00
2019-03-18T12:56:41.044Z,2.95
2019-03-18T12:59:09.904Z,2.47
2019-03-18T13:01:38.749Z,2.17
2019-03-18T13:04:07.845Z,2.42
2019-03-18T13:06:36.636Z,2.43
2019-03-18T13:09:08.186Z,2.40
2019-03-18T13:11:37.107Z,2.40
2019-03-18T13:14:05.963Z,2.43
2019-03-18T13:16:35.327Z,2.40
2019-03-18T13:19:04.620Z,2.40
2019-03-18T13:21:33.750Z,2.20
2019-03-18T13:24:02.589Z,2.25
2019-03-18T13:26:31.384Z,2.30
2019-03-18T13:29:00.473Z,2.30
2019-03-18T13:31:29.432Z,1.98
2019-03-18T13:33:58.640Z,1.98
2019-03-18T13:36:27.424Z,2.10
2019-03-18T13:38:56.402Z,2.30
2019-03-18T13:41:25.206Z,2.22
2019-03-18T13:43:54.414Z,2.20
2019-03-18T13:46:23.263Z,2.30
2019-03-18T13:48:52.423Z,2.45
2019-03-18T13:51:21.961Z,2.10
2019-03-18T13:53:50.754Z,2.20
2019-03-18T13:56:19.537Z,1.80
2019-03-18T13:58:48.312Z,1.37
2019-03-18T14:01:17.118Z,1.80
2019-03-18T14:03:46.288Z,1.50
2019-03-18T14:06:15.136Z,1.80
2019-03-18T14:08:43.904Z,1.85
2019-03-18T14:11:12.830Z,2.35
2019-03-18T14:13:41.699Z,2.20
2019-03-18T14:16:10.839Z,2.30
2019-03-18T14:18:40.032Z,2.35
2019-03-18T14:21:09.063Z,2.50
2019-03-18T14:23:37.942Z,2.70
2019-03-18T14:26:06.833Z,2.60
2019-03-18T14:28:35.614Z,2.70
2019-03-18T14:31:04.799Z,2.40
2019-03-18T14:33:33.823Z,2.50
2019-03-18T14:36:02.615Z,2.80
2019-03-18T14:38:31.634Z,2.67
2019-03-18T14:41:00.862Z,2.83
2019-03-18T14:43:29.944Z,2.80
2019-03-18T14:45:58.734Z,2.60
2019-03-18T14:48:27.672Z,2.70
2019-03-18T14:50:56.859Z,2.47
2019-03-18T14:53:25.949Z,2.60
2019-03-18T14:55:54.934Z,2.60
2019-03-18T14:58:24.015Z,2.70
2019-03-18T15:00:52.845Z,2.60
2019-03-18T15:03:21.860Z,2.50
2019-03-18T15:05:50.985Z,2.50
2019-03-18T15:08:20.238Z,1.98
2019-03-18T15:10:49.022Z,1.98
2019-03-18T15:13:30.063Z,1.77
2019-03-18T15:15:48.873Z,1.80
2019-03-18T15:18:17.666Z,1.92
2019-03-18T15:20:46.556Z,2.00
2019-03-18T15:23:15.368Z,2.22
2019-03-18T15:25:44.260Z,2.17
2019-03-18T15:28:13.198Z,2.00
2019-03-18T15:30:42.065Z,2.20
2019-03-18T15:33:10.906Z,2.30
2019-03-18T15:35:39.808Z,1.90
2019-03-18T15:38:08.592Z,2.15
2019-03-18T15:40:37.376Z,2.30
2019-03-18T15:43:06.233Z,2.22
2019-03-18T15:45:35.005Z,2.40
2019-03-18T15:48:04.005Z,2.30
2019-03-18T15:50:32.852Z,2.55
2019-03-18T15:53:01.667Z,2.35
2019-03-18T15:55:30.530Z,2.40
2019-03-18T15:57:59.384Z,2.72
2019-03-18T16:00:28.473Z,2.50
2019-03-18T16:02:57.394Z,2.85
2019-03-18T16:05:26.252Z,2.72
2019-03-18T16:07:55.418Z,2.70
2019-03-18T16:10:24.209Z,2.60
2019-03-18T16:12:53.896Z,2.75
2019-03-18T16:15:23.304Z,2.80
2019-03-18T16:17:52.585Z,2.87
2019-03-18T16:20:21.789Z,2.83
2019-03-18T16:22:50.916Z,2.60
2019-03-18T16:25:20.092Z,2.33
2019-03-18T16:27:49.009Z,2.60
2019-03-18T16:30:17.939Z,2.33
2019-03-18T16:32:46.817Z,2.27
2019-03-18T16:35:16.416Z,2.25
2019-03-18T16:37:45.764Z,2.50
2019-03-18T16:40:15.069Z,1.90
2019-03-18T16:42:43.936Z,2.27
2019-03-18T16:45:13.977Z,2.42
2019-03-18T16:47:43.296Z,2.40
2019-03-18T16:50:13.562Z,2.25
2019-03-18T16:52:42.460Z,2.40
2019-03-18T16:55:19.256Z,2.20
2019-03-18T16:57:50.409Z,2.58
2019-03-18T17:00:19.538Z,2.35
2019-03-18T17:02:48.324Z,2.40
2019-03-18T17:05:19.442Z,2.45
2019-03-18T17:07:48.283Z,2.60
2019-03-18T17:10:17.139Z,2.70
2019-03-18T17:12:46.696Z,2.90
2019-03-18T17:15:15.569Z,2.42
2019-03-18T17:17:44.794Z,2.60
2019-03-18T17:20:13.731Z,2.80
2019-03-18T17:22:48.892Z,2.72
2019-03-18T17:25:15.401Z,3.00
2019-03-18T17:27:44.602Z,3.07
2019-03-18T17:30:15.836Z,3.00
2019-03-18T17:32:44.895Z,2.90
2019-03-18T17:35:14.244Z,3.12
2019-03-18T17:37:43.376Z,3.10
2019-03-18T17:40:12.526Z,3.33
2019-03-18T17:42:41.999Z,3.22
2019-03-18T17:45:11.821Z,3.60
2019-03-18T17:47:40.864Z,4.17
2019-03-18T17:50:11.855Z,3.90
2019-03-18T17:52:40.923Z,3.90
2019-03-18T17:55:09.844Z,3.98
2019-03-18T17:57:38.704Z,3.90
2019-03-18T18:00:09.180Z,3.80
2019-03-18T18:02:37.968Z,3.70
2019-03-18T18:05:07.223Z,3.92
2019-03-18T18:07:36.522Z,3.50
2019-03-18T18:10:05.468Z,3.45
2019-03-18T18:12:34.660Z,3.60
2019-03-18T18:15:03.691Z,3.50
2019-03-18T18:17:32.469Z,3.45
2019-03-18T18:20:01.565Z,3.87
2019-03-18T18:22:49.568Z,3.90
2019-03-18T18:25:18.324Z,3.95
2019-03-18T18:27:47.094Z,3.85
2019-03-18T18:30:15.955Z,3.60
2019-03-18T18:32:44.844Z,4.20
2019-03-18T18:35:14.023Z,4.10
2019-03-18T18:37:42.981Z,4.22
2019-03-18T18:40:12.377Z,3.83
2019-03-18T18:42:41.218Z,4.28
2019-03-18T18:45:10.628Z,4.53
2019-03-18T18:47:40.818Z,4.00
2019-03-18T18:50:09.959Z,4.37
2019-03-18T18:52:38.776Z,4.03
2019-03-18T18:55:07.834Z,4.75
2019-03-18T18:57:36.611Z,4.22
2019-03-18T19:00:06.849Z,4.50
2019-03-18T19:02:35.647Z,4.40
2019-03-18T19:05:05.469Z,4.70
2019-03-18T19:07:34.586Z,4.67
2019-03-18T19:10:03.358Z,4.30
2019-03-18T19:12:32.110Z,4.60
2019-03-18T19:15:00.873Z,4.65
2019-03-18T19:17:29.652Z,4.58
2019-03-18T19:19:58.459Z,4.40
2019-03-18T19:22:27.296Z,4.60
2019-03-18T19:24:56.119Z,4.62
2019-03-18T19:27:24.947Z,4.40
2019-03-18T19:29:53.784Z,4.95
2019-03-18T19:32:22.544Z,5.40
2019-03-18T19:34:51.673Z,5.40
2019-03-18T19:37:20.946Z,5.30
2019-03-18T19:39:50.295Z,6.40
2019-03-18T19:42:20.147Z,6.10
2019-03-18T19:44:52.986Z,5.80
2019-03-18T19:47:28.009Z,5.75
2019-03-18T19:49:57.112Z,5.70
2019-03-18T19:52:25.927Z,6.25
2019-03-18T19:54:55.188Z,6.30
2019-03-18T19:57:24.088Z,6.62
2019-03-18T19:59:56.088Z,6.72
2019-03-18T20:02:25.919Z,6.78
2019-03-18T20:04:54.708Z,6.92
2019-03-18T20:07:23.505Z,7.25
2019-03-18T20:09:53.048Z,7.17
2019-03-18T20:12:21.817Z,7.30
2019-03-18T20:14:50.680Z,7.92
2019-03-18T20:17:19.434Z,8.38
2019-03-18T20:19:51.234Z,8.18
2019-03-18T20:22:20.271Z,7.70
2019-03-18T20:24:49.065Z,7.62
2019-03-18T20:27:17.916Z,7.57
2019-03-18T20:29:46.984Z,7.70
2019-03-18T20:32:17.448Z,7.53
2019-03-18T20:34:46.316Z,7.70
2019-03-18T20:37:15.100Z,7.22
2019-03-18T20:39:44.148Z,7.42
2019-03-18T20:42:13.161Z,7.30
2019-03-18T20:44:42.295Z,7.55
2019-03-18T20:47:11.062Z,7.50
2019-03-18T20:49:40.183Z,7.92
2019-03-18T20:52:16.805Z,7.25
2019-03-18T20:54:41.594Z,7.22
2019-03-18T20:57:11.143Z,7.12
2019-03-18T20:59:40.549Z,6.62
2019-03-18T21:02:09.494Z,7.05
2019-03-18T21:04:38.251Z,6.80
2019-03-18T21:07:07.443Z,6.47
2019-03-18T21:09:36.231Z,6.00
2019-03-18T21:12:05.027Z,6.20
2019-03-18T21:14:34.716Z,5.90
2019-03-18T21:17:04.116Z,5.90
2019-03-18T21:19:32.871Z,5.60
2019-03-18T21:22:01.725Z,5.67
2019-03-18T21:24:31.075Z,5.90
2019-03-18T21:26:59.853Z,5.95
2019-03-18T21:29:28.951Z,5.67
2019-03-18T21:31:58.047Z,5.60
2019-03-18T21:34:26.847Z,5.85
2019-03-18T21:36:55.773Z,5.90
2019-03-18T21:39:24.554Z,5.47
2019-03-18T21:41:53.611Z,5.90
2019-03-18T21:44:22.372Z,6.15
2019-03-18T21:46:51.220Z,5.78
2019-03-18T21:49:20.072Z,5.60
2019-03-18T21:51:48.909Z,5.55
2019-03-18T21:54:18.176Z,5.55
2019-03-18T21:56:47.004Z,6.33
2019-03-18T21:59:15.767Z,6.12
2019-03-18T22:01:44.922Z,6.50
2019-03-18T22:04:14.163Z,6.20
2019-03-18T22:06:42.940Z,6.33
2019-03-18T22:09:11.824Z,6.83
2019-03-18T22:11:40.659Z,6.53
2019-03-18T22:14:09.433Z,6.45
2019-03-18T22:16:38.182Z,6.60
2019-03-18T22:19:06.935Z,6.60
2019-03-18T22:21:36.010Z,6.65
2019-03-18T22:24:04.936Z,6.90
2019-03-18T22:26:33.761Z,6.65
2019-03-18T22:29:02.516Z,6.67
2019-03-18T22:31:31.300Z,7.03
2019-03-18T22:34:00.276Z,7.33
2019-03-18T22:36:29.420Z,7.08
2019-03-18T22:38:58.488Z,7.30
2019-03-18T22:41:27.319Z,7.53
2019-03-18T22:44:15.633Z,7.10
2019-03-18T22:46:44.956Z,7.20
2019-03-18T22:49:14.119Z,7.28
2019-03-18T22:51:42.885Z,7.20
2019-03-18T22:54:11.705Z,7.00
2019-03-18T22:56:40.484Z,6.95
2019-03-18T22:59:09.325Z,7.00
2019-03-18T23:01:38.872Z,7.15
2019-03-18T23:04:07.671Z,7.25
2019-03-18T23:06:36.739Z,8.70
2019-03-18T23:09:07.376Z,10.05
2019-03-18T23:11:36.464Z,9.45
2019-03-18T23:14:05.505Z,10.10
2019-03-18T23:16:34.675Z,9.10
2019-03-18T23:19:03.537Z,9.83
2019-03-18T23:21:32.342Z,9.68
2019-03-18T23:24:01.189Z,9.20
2019-03-18T23:26:30.329Z,8.80
2019-03-18T23:28:59.722Z,9.30
2019-03-18T23:31:28.709Z,9.60
2019-03-18T23:33:57.791Z,9.25
2019-03-18T23:36:26.891Z,10.60
2019-03-18T23:38:55.999Z,10.53
2019-03-18T23:41:25.099Z,10.85
2019-03-18T23:43:53.932Z,11.75
2019-03-18T23:46:22.803Z,12.07
2019-03-18T23:48:51.709Z,12.63
2019-03-18T23:51:20.570Z,12.23
2019-03-18T23:53:49.626Z,11.50
2019-03-18T23:56:18.588Z,11.08
2019-03-18T23:58:48.038Z,10.78
